Time;durP1;ratioP1;P1;durP2;ratioP2;P2;SDS_P1;SDS_P2;PMS_P1;PMS_P2;Temp;Humidity;BMP_temperature;BMP_pressure;BME280_temperature;BME280_humidity;BME280_pressure;Samples;Min_cycle;Max_cycle;Signal;HPM_P1;HPM_P2
2021/06/24 00:01:03;;;;;;;12.07;6.97;;;14.60;99.90;;;13.46;100.00;101757.13;4996161;28;20465;-73
2021/06/24 00:03:33;;;;;;;12.43;7.20;;;14.70;99.90;;;13.40;100.00;101752.94;5001525;28;20464;-72
2021/06/24 00:06:01;;;;;;;11.82;7.13;;;14.60;99.90;;;13.39;100.00;101750.34;4994569;28;20384;-72
2021/06/24 00:08:28;;;;;;;10.80;6.80;;;14.60;99.90;;;13.33;100.00;101740.91;4999731;28;20065;-72
2021/06/24 00:10:58;;;;;;;13.98;6.70;;;14.50;99.90;;;13.18;100.00;101734.41;5001474;28;20085;-72
2021/06/24 00:13:25;;;;;;;5.22;3.33;;;14.30;99.90;;;12.88;99.34;101728.59;4999059;28;20061;-72
2021/06/24 00:15:52;;;;;;;7.90;5.35;;;14.00;99.90;;;12.59;100.00;101732.38;4993705;28;20026;-72
2021/06/24 00:18:19;;;;;;;9.85;5.45;;;13.90;99.90;;;12.57;100.00;101729.81;4994131;28;20162;-72
2021/06/24 00:20:47;;;;;;;13.95;7.20;;;13.90;99.90;;;12.58;100.00;101728.88;5017422;28;20054;-72
2021/06/24 00:23:14;;;;;;;14.88;8.77;;;13.80;99.90;;;12.52;100.00;101729.13;5003721;28;20144;-72
2021/06/24 00:25:40;;;;;;;15.05;7.03;;;13.70;99.90;;;12.40;100.00;101711.13;5001105;28;20070;-72
2021/06/24 00:28:07;;;;;;;10.32;5.65;;;13.60;99.90;;;12.26;100.00;101714.28;5004174;28;20466;-72
2021/06/24 00:30:35;;;;;;;9.13;6.25;;;13.50;99.90;;;12.18;100.00;101718.97;5001283;28;20073;-72
2021/06/24 00:33:02;;;;;;;11.13;5.82;;;13.50;99.90;;;12.16;100.00;101713.78;4995046;28;20053;-72
2021/06/24 00:35:28;;;;;;;12.93;7.63;;;13.40;99.90;;;12.20;100.00;101703.94;5001130;28;20158;-72
2021/06/24 00:37:54;;;;;;;10.05;6.95;;;13.40;99.90;;;12.13;100.00;101700.69;5000722;28;20552;-72
2021/06/24 00:40:22;;;;;;;10.45;7.30;;;13.40;99.90;;;12.13;100.00;101697.19;4987581;28;20079;-72
2021/06/24 00:42:50;;;;;;;14.50;6.70;;;13.40;99.90;;;12.16;100.00;101702.34;5001586;28;20137;-72
2021/06/24 00:45:16;;;;;;;11.55;7.63;;;13.40;99.90;;;12.15;100.00;101700.63;5002313;28;20064;-72
2021/06/24 00:47:42;;;;;;;13.77;8.25;;;13.40;99.90;;;12.13;100.00;101691.91;5014510;28;20422;-72
2021/06/24 00:50:11;;;;;;;13.80;7.75;;;13.30;99.90;;;11.98;100.00;101695.97;5009603;28;20068;-72
2021/06/24 00:52:37;;;;;;;14.68;8.40;;;13.20;99.90;;;11.87;100.00;101680.50;5007788;28;20068;-72
2021/06/24 00:55:06;;;;;;;18.25;8.20;;;13.30;99.90;;;11.87;100.00;101675.22;4995014;28;20147;-72
2021/06/24 00:57:32;;;;;;;16.90;8.25;;;13.20;99.90;;;11.80;100.00;101676.38;5005102;28;20091;-72
2021/06/24 00:59:58;;;;;;;18.17;9.07;;;13.10;99.90;;;11.73;100.00;101678.38;4996711;28;20062;-72
2021/06/24 01:02:25;;;;;;;15.30;8.77;;;13.10;99.90;;;11.70;100.00;101679.34;4995723;28;20098;-72
2021/06/24 01:04:51;;;;;;;13.57;8.32;;;13.00;99.90;;;11.57;100.00;101678.03;5018685;28;20723;-72
2021/06/24 01:07:17;;;;;;;14.23;9.07;;;12.90;99.90;;;11.54;100.00;101680.81;5000454;28;20075;-72
2021/06/24 01:09:43;;;;;;;14.38;8.52;;;12.80;99.90;;;11.53;100.00;101689.63;5000588;28;20150;-72
2021/06/24 01:12:10;;;;;;;19.58;8.73;;;12.90;99.90;;;11.56;100.00;101692.16;4974561;28;20147;-72
2021/06/24 01:14:37;;;;;;;13.75;8.20;;;12.90;99.90;;;11.59;100.00;101696.47;4999446;28;20065;-72
2021/06/24 01:17:04;;;;;;;18.70;9.82;;;13.00;99.90;;;11.64;100.00;101689.22;4994546;28;20158;-72
2021/06/24 01:19:30;;;;;;;19.13;10.05;;;13.00;99.90;;;11.61;100.00;101689.34;4999589;28;20089;-72
2021/06/24 01:21:58;;;;;;;18.90;9.30;;;13.00;99.90;;;11.63;100.00;101698.94;5002800;28;20057;-72
2021/06/24 01:24:24;;;;;;;15.50;9.73;;;13.00;99.90;;;11.72;100.00;101697.75;4993628;28;20101;-72
2021/06/24 01:26:51;;;;;;;18.80;10.68;;;13.00;99.90;;;11.70;100.00;101689.91;4999111;28;20114;-72
2021/06/24 01:29:17;;;;;;;22.90;11.80;;;13.00;99.90;;;11.67;100.00;101690.00;4974305;28;20145;-72
2021/06/24 01:31:43;;;;;;;19.90;11.35;;;13.00;99.90;;;11.64;100.00;101686.59;5000754;28;20125;-72
2021/06/24 01:34:12;;;;;;;21.90;10.98;;;12.90;99.90;;;11.62;100.00;101694.59;5005206;28;20069;-72
2021/06/24 01:36:39;;;;;;;18.77;10.25;;;13.00;99.90;;;11.62;100.00;101694.59;5000590;28;20088;-72
2021/06/24 01:39:10;;;;;;;17.25;9.68;;;12.90;99.90;;;11.55;100.00;101694.84;5000193;28;20481;-72
2021/06/24 01:41:37;;;;;;;17.65;10.05;;;12.90;99.90;;;11.55;100.00;101708.03;5015848;28;21820;-72
2021/06/24 01:44:03;;;;;;;16.35;9.45;;;12.80;99.90;;;11.54;100.00;101715.09;5000946;28;20100;-72
2021/06/24 01:46:29;;;;;;;15.52;8.50;;;12.90;99.90;;;11.60;100.00;101717.53;5005227;28;20078;-72
2021/06/24 01:48:56;;;;;;;18.10;10.50;;;13.00;99.90;;;11.67;100.00;101708.47;5002957;28;20055;-72
2021/06/24 01:51:22;;;;;;;17.80;10.40;;;13.00;99.90;;;11.67;100.00;101710.25;5007960;28;20073;-72
2021/06/24 01:53:50;;;;;;;16.25;9.73;;;13.00;99.90;;;11.70;100.00;101710.13;4997801;28;20052;-72
2021/06/24 01:56:16;;;;;;;17.15;9.80;;;13.00;99.90;;;11.69;100.00;101714.56;4997946;28;20073;-72
2021/06/24 01:58:42;;;;;;;16.48;9.00;;;13.00;99.90;;;11.70;100.00;101708.38;4953914;28;20058;-72
2021/06/24 02:01:09;;;;;;;15.60;9.32;;;13.40;99.90;;;11.75;100.00;101712.59;4966807;28;20057;-72
2021/06/24 02:03:37;;;;;;;15.48;9.45;;;13.00;99.90;;;11.73;100.00;101709.16;4980775;28;20082;-72
2021/06/24 02:06:05;;;;;;;14.07;9.02;;;13.00;99.90;;;11.67;100.00;101713.75;4983708;28;20057;-72
2021/06/24 02:08:35;;;;;;;14.60;8.65;;;13.00;99.90;;;11.63;100.00;101709.47;4983159;28;20563;-72
2021/06/24 02:11:02;;;;;;;19.83;8.95;;;12.90;99.90;;;11.57;100.00;101708.84;4979843;28;20072;-72
2021/06/24 02:13:28;;;;;;;14.35;9.02;;;12.90;99.90;;;11.60;100.00;101716.66;4964834;28;20240;-72
2021/06/24 02:15:54;;;;;;;16.08;9.75;;;12.90;99.90;;;11.55;100.00;101714.16;4983270;28;20061;-72
2021/06/24 02:18:20;;;;;;;14.60;8.82;;;12.90;99.90;;;11.48;100.00;101721.44;4982823;28;20087;-72
2021/06/24 02:20:46;;;;;;;15.43;8.57;;;12.80;99.90;;;11.41;100.00;101716.44;4979796;28;20053;-72
2021/06/24 02:23:12;;;;;;;12.25;7.82;;;12.80;99.90;;;11.38;100.00;101719.16;4983651;28;20064;-72
2021/06/24 02:25:38;;;;;;;12.25;8.52;;;12.70;99.90;;;11.37;100.00;101723.56;4980922;28;20068;-72
2021/06/24 02:28:05;;;;;;;15.82;8.07;;;12.70;99.90;;;11.40;100.00;101722.59;4972800;28;20054;-72
2021/06/24 02:30:31;;;;;;;16.50;8.82;;;12.70;99.90;;;11.43;100.00;101725.16;4981941;28;20056;-72
2021/06/24 02:32:57;;;;;;;15.90;8.13;;;12.80;99.90;;;11.46;100.00;101731.16;4983936;28;20054;-72
2021/06/24 02:35:25;;;;;;;15.95;8.95;;;12.80;99.90;;;11.54;100.00;101733.56;4981582;28;20590;-72
2021/06/24 02:37:54;;;;;;;17.02;9.35;;;12.90;99.90;;;11.59;100.00;101723.69;4990475;28;20087;-72
2021/06/24 02:40:21;;;;;;;15.82;9.52;;;13.00;99.90;;;11.64;100.00;101719.13;4997986;28;20121;-72
2021/06/24 02:42:47;;;;;;;16.90;9.35;;;13.00;99.90;;;11.72;100.00;101718.00;4983452;28;20149;-72
2021/06/24 02:45:14;;;;;;;12.32;8.98;;;13.10;99.90;;;11.77;100.00;101716.03;4979622;28;20047;-72
2021/06/24 02:47:41;;;;;;;16.27;8.40;;;13.10;99.90;;;11.80;100.00;101706.25;4983044;28;20124;-72
2021/06/24 02:50:10;;;;;;;15.55;8.57;;;13.20;99.90;;;11.83;100.00;101708.75;4971818;28;20061;-72
2021/06/24 02:52:37;;;;;;;14.13;9.10;;;13.20;99.90;;;11.92;100.00;101699.69;4971665;28;20073;-72
2021/06/24 02:55:04;;;;;;;20.65;9.57;;;13.30;99.90;;;11.97;100.00;101700.41;4980040;28;20727;-72
2021/06/24 02:57:31;;;;;;;19.15;9.35;;;13.30;99.90;;;12.03;100.00;101699.28;5002811;28;20069;-72
2021/06/24 02:59:57;;;;;;;16.02;9.32;;;13.40;99.90;;;12.05;100.00;101693.06;5000792;28;20541;-72
2021/06/24 03:02:22;;;;;;;18.23;8.90;;;13.40;99.90;;;12.11;100.00;101690.16;5002157;28;20057;-72
2021/06/24 03:04:48;;;;;;;17.48;9.75;;;13.50;99.90;;;12.16;100.00;101689.13;5002843;28;20060;-72
2021/06/24 03:07:16;;;;;;;13.80;8.57;;;13.50;99.90;;;12.25;100.00;101687.00;4995543;28;20468;-72
2021/06/24 03:09:42;;;;;;;13.73;8.80;;;13.70;99.90;;;12.35;100.00;101697.22;4992644;28;20512;-72
2021/06/24 03:12:09;;;;;;;16.95;10.00;;;13.70;99.90;;;12.45;100.00;101695.94;4999781;28;20104;-72
2021/06/24 03:14:34;;;;;;;17.15;9.57;;;13.90;99.90;;;12.57;100.00;101692.84;5001217;28;20622;-72
2021/06/24 03:17:01;;;;;;;18.98;9.65;;;;;;;12.64;100.00;101710.16;4999242;28;20083;-72
2021/06/24 03:19:26;;;;;;;16.90;9.48;;;14.00;99.90;;;12.75;100.00;101703.59;5001733;28;20058;-72
2021/06/24 03:21:55;;;;;;;21.45;10.63;;;14.10;99.90;;;12.84;100.00;101705.84;4994993;28;20066;-72
2021/06/24 03:24:21;;;;;;;16.38;10.15;;;14.20;99.90;;;12.89;100.00;101706.50;4992738;28;20074;-72
2021/06/24 03:26:46;;;;;;;16.35;10.40;;;14.30;99.90;;;12.95;100.00;101711.56;5001711;28;20058;-72
2021/06/24 03:29:12;;;;;;;13.77;9.55;;;14.30;99.90;;;13.01;100.00;101713.09;5005306;28;20051;-72
2021/06/24 03:31:38;;;;;;;17.30;9.55;;;14.40;99.90;;;13.06;100.00;101709.31;5002968;28;20069;-72
2021/06/24 03:34:04;;;;;;;17.13;9.73;;;14.40;99.90;;;13.10;100.00;101713.56;5002276;28;20125;-72
2021/06/24 03:36:30;;;;;;;19.48;10.50;;;14.40;99.90;;;13.11;100.00;101711.81;5002092;28;20077;-72
2021/06/24 03:38:56;;;;;;;15.13;9.68;;;14.40;99.90;;;13.06;100.00;101711.97;4999991;28;20063;-72
2021/06/24 03:41:26;;;;;;;15.20;9.85;;;14.40;99.90;;;13.01;100.00;101703.38;5001637;28;20069;-72
2021/06/24 03:43:54;;;;;;;20.38;9.90;;;14.30;99.90;;;13.01;100.00;101718.41;4998277;28;20637;-72
2021/06/24 03:46:24;;;;;;;19.08;11.05;;;15.00;99.90;;;13.01;100.00;101728.97;4992852;28;20088;-72
2021/06/24 03:48:51;;;;;;;18.48;10.02;;;14.30;99.90;;;13.01;100.00;101723.69;4997332;28;20066;-72
2021/06/24 03:51:19;;;;;;;18.67;9.68;;;14.30;99.90;;;13.05;100.00;101714.69;5002736;28;20077;-72
2021/06/24 03:53:46;;;;;;;19.58;11.52;;;14.40;99.90;;;13.06;100.00;101719.91;5000579;28;20083;-72
2021/06/24 03:56:12;;;;;;;18.48;10.23;;;14.40;99.90;;;13.11;100.00;101714.44;4998382;28;20061;-72
2021/06/24 03:58:38;;;;;;;20.63;10.45;;;14.50;99.90;;;13.20;100.00;101713.22;4998458;28;20068;-72
2021/06/24 04:01:06;;;;;;;19.45;10.27;;;14.50;99.90;;;13.24;100.00;101706.84;4991799;28;20069;-72
2021/06/24 04:03:32;;;;;;;17.23;10.38;;;14.50;99.90;;;13.24;100.00;101705.06;4999704;28;20083;-72
2021/06/24 04:05:59;;;;;;;17.90;10.85;;;14.60;99.90;;;13.29;100.00;101700.47;4992218;28;20338;-72
2021/06/24 04:08:25;;;;;;;24.05;10.73;;;14.60;99.90;;;13.34;100.00;101702.91;4998964;28;20404;-72
2021/06/24 04:10:51;;;;;;;20.30;11.55;;;14.60;99.90;;;13.39;100.00;101689.50;5002119;28;20060;-72
2021/06/24 04:13:16;;;;;;;17.05;10.73;;;14.70;99.90;;;13.45;100.00;101676.84;5007124;28;20507;-72
2021/06/24 04:15:42;;;;;;;21.98;10.93;;;14.80;99.90;;;13.60;100.00;101672.69;4978418;28;20071;-72
2021/06/24 04:18:08;;;;;;;22.85;11.90;;;14.90;99.90;;;13.70;100.00;101671.34;4982095;28;20080;-72
2021/06/24 04:20:35;;;;;;;17.70;10.63;;;15.10;99.90;;;13.82;100.00;101671.72;4969203;28;20520;-72
2021/06/24 04:23:03;;;;;;;20.02;10.73;;;15.30;99.90;;;13.99;100.00;101676.25;4962762;28;20064;-72
2021/06/24 04:25:29;;;;;;;20.27;10.00;;;15.40;99.90;;;14.11;100.00;101676.56;4972566;28;20066;-72
2021/06/24 04:27:58;;;;;;;20.08;9.55;;;15.50;99.90;;;14.20;100.00;101672.63;4965029;28;20061;-72
2021/06/24 04:30:24;;;;;;;15.88;8.43;;;15.60;99.90;;;14.31;100.00;101669.47;4977450;28;20127;-72
2021/06/24 04:32:52;;;;;;;18.02;9.05;;;15.70;99.90;;;14.31;100.00;101666.81;4995882;28;20161;-72
2021/06/24 04:35:18;;;;;;;13.55;8.98;;;15.70;99.90;;;14.37;100.00;101661.22;4977577;28;20073;-72
2021/06/24 04:37:44;;;;;;;11.10;7.53;;;15.70;99.90;;;14.49;100.00;101655.34;4979914;28;20492;-72
2021/06/24 04:40:12;;;;;;;14.55;8.35;;;15.80;99.90;;;14.33;100.00;101659.66;4980616;28;20060;-72
2021/06/24 04:42:38;;;;;;;15.30;8.20;;;15.70;99.90;;;14.28;100.00;101661.69;4993229;28;20230;-72
2021/06/24 04:45:10;;;;;;;14.90;8.65;;;15.70;99.90;;;14.27;100.00;101666.09;4979776;28;20055;-72
2021/06/24 04:47:37;;;;;;;14.68;7.55;;;15.60;99.90;;;14.35;100.00;101668.41;4994448;28;20090;-72
2021/06/24 04:50:05;;;;;;;11.52;8.07;;;15.70;99.90;;;14.48;100.00;101660.72;4978952;28;20083;-72
2021/06/24 04:52:31;;;;;;;12.80;8.63;;;15.80;99.90;;;14.50;100.00;101672.97;4981636;28;20060;-72
2021/06/24 04:54:57;;;;;;;19.45;8.40;;;15.80;99.90;;;14.57;100.00;101676.19;4978265;28;20053;-72
2021/06/24 04:57:23;;;;;;;14.25;7.68;;;15.80;99.90;;;14.46;100.00;101681.97;4979950;28;20076;-72
2021/06/24 04:59:49;;;;;;;14.75;7.38;;;15.80;99.90;;;14.59;100.00;101682.28;4971691;28;20068;-72
2021/06/24 05:02:17;;;;;;;15.63;8.07;;;15.90;99.90;;;14.68;100.00;101676.53;4980532;28;20170;-72
2021/06/24 05:04:43;;;;;;;16.75;8.18;;;16.00;99.90;;;14.62;100.00;101684.81;4983499;28;20062;-72
2021/06/24 05:07:10;;;;;;;12.88;8.05;;;16.00;99.90;;;14.66;100.00;101685.50;4975027;28;20065;-72
2021/06/24 05:09:41;;;;;;;16.75;8.02;;;16.00;99.90;;;14.64;100.00;101684.72;4985211;28;20085;-72
2021/06/24 05:12:10;;;;;;;15.65;8.02;;;16.00;99.90;;;14.72;100.00;101683.41;4983424;28;20066;-72
2021/06/24 05:14:38;;;;;;;11.55;7.40;;;16.10;99.90;;;14.94;100.00;101685.84;4979011;28;20056;-72
2021/06/24 05:17:05;;;;;;;15.90;8.35;;;16.20;99.90;;;14.92;100.00;101682.44;4985859;28;20131;-72
2021/06/24 05:19:36;;;;;;;14.02;8.32;;;16.20;99.90;;;14.93;100.00;101685.94;4981533;28;20123;-72
2021/06/24 05:22:02;;;;;;;12.88;8.18;;;16.30;99.90;;;14.98;100.00;101679.47;4984014;28;20429;-72
2021/06/24 05:24:29;;;;;;;16.60;8.85;;;16.40;99.90;;;15.17;100.00;101681.22;5013974;28;20469;-72
2021/06/24 05:26:55;;;;;;;17.42;9.20;;;16.50;99.90;;;15.42;100.00;101667.56;5004043;28;20062;-72
2021/06/24 05:29:21;;;;;;;19.55;9.20;;;16.80;99.90;;;15.75;100.00;101670.25;4999274;28;20160;-72
2021/06/24 05:31:47;;;;;;;10.90;8.43;;;17.00;99.90;;;15.76;100.00;101666.63;4983961;28;20130;-72
2021/06/24 05:34:13;;;;;;;18.90;8.73;;;17.00;99.90;;;15.84;100.00;101674.19;4991150;28;20079;-72
2021/06/24 05:36:39;;;;;;;15.45;8.27;;;17.10;99.90;;;15.99;100.00;101664.56;4990484;28;20498;-72
2021/06/24 05:39:05;;;;;;;14.82;8.00;;;17.20;99.90;;;16.04;100.00;101662.50;4990814;28;20052;-72
2021/06/24 05:41:32;;;;;;;19.15;8.40;;;17.30;99.90;;;16.15;100.00;101654.78;5002217;28;20032;-72
2021/06/24 05:43:58;;;;;;;16.10;7.68;;;17.50;99.90;;;16.36;100.00;101654.53;5004989;28;20064;-72
2021/06/24 05:46:25;;;;;;;17.10;7.93;;;17.70;99.90;;;16.48;99.15;101648.53;5002986;28;20384;-72
2021/06/24 05:48:51;;;;;;;14.00;8.20;;;17.80;99.90;;;16.50;99.92;101646.66;4985697;28;20038;-72
2021/06/24 05:51:21;;;;;;;11.70;7.65;;;17.80;99.90;;;16.46;100.00;101634.47;4992869;28;20158;-72
2021/06/24 05:53:47;;;;;;;15.90;7.85;;;18.00;99.90;;;16.75;98.08;101637.25;4999626;28;20521;-72
2021/06/24 05:56:13;;;;;;;13.80;7.22;;;18.20;99.90;;;16.80;97.65;101628.13;5003623;28;20070;-72
2021/06/24 05:58:39;;;;;;;18.42;7.22;;;18.30;99.90;;;16.90;98.15;101624.91;5006953;28;20099;-72
2021/06/24 06:01:05;;;;;;;12.45;7.65;;;18.40;99.90;;;16.90;96.92;101633.72;4985726;28;20034;-72
2021/06/24 06:03:31;;;;;;;14.20;7.70;;;18.50;99.90;;;17.28;97.45;101627.94;5001363;28;20033;-72
2021/06/24 06:05:57;;;;;;;11.82;8.07;;;18.70;99.90;;;17.24;95.89;101628.22;4998382;28;20477;-72
2021/06/24 06:08:23;;;;;;;20.17;6.93;;;18.90;99.90;;;17.65;94.82;101615.03;5003759;28;20029;-72
2021/06/24 06:10:50;;;;;;;12.52;7.57;;;18.90;99.90;;;17.25;96.77;101617.47;4992319;28;20049;-72
2021/06/24 06:13:16;;;;;;;13.77;7.20;;;18.90;99.90;;;17.64;94.42;101629.28;4998298;28;20033;-72
2021/06/24 06:15:47;;;;;;;13.27;7.43;;;18.90;99.90;;;17.38;94.81;101622.91;5001426;28;22995;-72
2021/06/24 06:18:18;;;;;;;10.25;6.68;;;18.70;99.90;;;17.42;94.99;101617.28;4991064;28;20409;-72
2021/06/24 06:20:45;;;;;;;9.57;6.75;;;18.70;99.90;;;17.25;94.67;101614.81;5004103;28;20087;-72
2021/06/24 06:23:14;;;;;;;10.48;6.93;;;18.80;99.90;;;17.56;94.84;101605.81;5002366;28;20076;-72
2021/06/24 06:25:40;;;;;;;11.70;6.30;;;18.90;99.90;;;17.58;92.87;101614.56;5000697;28;20068;-72
2021/06/24 06:28:07;;;;;;;16.20;6.78;;;19.00;99.90;;;17.79;92.68;101612.34;4999124;28;20033;-73
2021/06/24 06:30:33;;;;;;;9.48;5.60;;;19.20;99.90;;;18.04;90.37;101613.50;4994242;28;20030;-74
2021/06/24 06:33:01;;;;;;;7.97;5.53;;;19.40;99.90;;;18.11;89.47;101601.47;4999392;28;20048;-74
2021/06/24 06:35:28;;;;;;;12.65;6.05;;;19.40;99.90;;;17.87;90.23;101606.56;5000527;28;20044;-74
2021/06/24 06:37:54;;;;;;;10.15;5.50;;;19.30;99.90;;;17.88;91.52;101607.41;4993807;28;20045;-74
2021/06/24 06:40:20;;;;;;;8.40;4.53;;;19.20;99.90;;;17.51;90.53;101602.56;4982831;28;20103;-73
2021/06/24 06:42:47;;;;;;;8.63;5.55;;;18.90;99.90;;;17.39;92.22;101616.63;4999072;28;20092;-73
2021/06/24 06:45:13;;;;;;;11.07;5.35;;;19.00;99.90;;;17.65;92.82;101619.50;5001772;28;20030;-74
2021/06/24 06:47:40;;;;;;;8.68;4.90;;;19.00;99.90;;;17.83;90.52;101619.22;5001094;28;20029;-73
2021/06/24 06:50:06;;;;;;;10.93;5.55;;;19.20;99.90;;;17.88;89.10;101626.91;4997687;28;20040;-74
2021/06/24 06:52:32;;;;;;;7.53;4.75;;;19.20;99.90;;;17.62;91.32;101626.72;5002570;28;20030;-73
2021/06/24 06:54:58;;;;;;;10.52;4.45;;;19.10;99.90;;;17.57;91.21;101627.94;4984159;28;20449;-73
2021/06/24 06:57:24;;;;;;;9.00;4.75;;;19.10;99.90;;;17.98;89.49;101625.38;4982309;28;20406;-74
2021/06/24 06:59:50;;;;;;;9.25;4.68;;;19.20;99.90;;;18.12;86.36;101626.31;5002565;28;20033;-73
2021/06/24 07:02:16;;;;;;;5.85;4.07;;;19.40;99.90;;;18.32;86.88;101630.38;4993907;28;20041;-73
2021/06/24 07:04:41;;;;;;;7.75;4.07;;;19.40;99.90;;;18.21;85.84;101623.91;4955412;28;20030;-74
2021/06/24 07:07:07;;;;;;;8.25;3.90;;;19.40;99.90;;;18.02;87.94;101628.72;5000966;28;20033;-74
2021/06/24 07:09:33;;;;;;;11.27;4.68;;;19.50;99.90;;;18.34;85.99;101626.66;5001669;28;20034;-74
2021/06/24 07:11:59;;;;;;;8.57;4.72;;;19.60;99.90;;;18.33;87.18;101624.06;5000832;28;20044;-73
2021/06/24 07:14:25;;;;;;;9.68;4.60;;;19.70;99.90;;;18.56;85.65;101627.91;5000650;28;20025;-73
2021/06/24 07:16:51;;;;;;;6.40;4.13;;;19.70;99.90;;;18.43;87.61;101627.88;4998611;28;20037;-73
2021/06/24 07:19:17;;;;;;;9.30;4.07;;;19.80;99.90;;;18.61;84.30;101625.78;4983738;28;20366;-73
2021/06/24 07:21:43;;;;;;;5.30;3.70;;;19.80;99.90;;;18.42;85.39;101627.00;4999942;28;20025;-72
2021/06/24 07:24:09;;;;;;;6.35;3.10;;;19.70;99.90;;;18.42;83.65;101629.69;5000222;28;20022;-72
2021/06/24 07:26:38;;;;;;;6.85;3.55;;;19.80;99.90;;;18.69;83.67;101622.63;4984470;28;20030;-73
2021/06/24 07:29:04;;;;;;;8.35;3.20;;;19.90;99.90;;;18.42;84.39;101631.47;4999548;28;20033;-73
2021/06/24 07:31:30;;;;;;;6.60;3.25;;;19.80;99.90;;;18.30;81.09;101626.94;5001665;28;20417;-73
2021/06/24 07:34:20;;;;;;;4.80;2.88;;;19.50;99.90;;;18.26;82.90;101636.09;4989718;28;20041;-73
2021/06/24 07:36:50;;;;;;;5.35;3.20;;;19.70;99.90;;;18.78;82.18;101630.03;4998884;28;20121;-73
2021/06/24 07:39:16;;;;;;;5.40;3.00;;;19.80;99.90;;;18.77;81.44;101621.16;5002959;28;20377;-73
2021/06/24 07:41:42;;;;;;;5.20;3.40;;;19.90;99.90;;;18.46;83.13;101638.31;4997125;28;20018;-73
2021/06/24 07:44:08;;;;;;;5.55;3.30;;;19.70;99.90;;;18.17;83.51;101638.41;5002142;28;20053;-73
2021/06/24 07:46:34;;;;;;;5.30;3.30;;;19.60;99.90;;;18.15;84.18;101634.97;4998187;28;20040;-73
2021/06/24 07:49:00;;;;;;;5.95;3.17;;;19.60;99.90;;;18.14;83.85;101632.41;4999205;28;20089;-73
2021/06/24 07:51:26;;;;;;;7.97;3.47;;;19.60;99.90;;;18.18;84.56;101634.75;5002022;28;20163;-73
2021/06/24 07:53:52;;;;;;;6.78;3.30;;;19.70;99.90;;;18.46;83.61;101632.97;4997365;28;20582;-73
2021/06/24 07:56:18;;;;;;;5.32;3.35;;;19.80;99.90;;;18.57;85.30;101630.47;4998844;28;20022;-73
2021/06/24 07:58:44;;;;;;;6.95;2.88;;;19.90;99.90;;;18.77;81.32;101633.66;5000013;28;20108;-73
2021/06/24 08:01:10;;;;;;;5.57;2.90;;;20.00;99.90;;;18.85;78.97;101634.00;5001111;28;20485;-73
2021/06/24 08:03:37;;;;;;;4.63;2.60;;;20.10;99.90;;;18.65;79.83;101632.63;4995702;28;20906;-73
2021/06/24 08:06:04;;;;;;;6.05;2.80;;;20.10;99.90;;;19.01;80.02;101629.34;4997435;28;20117;-73
2021/06/24 08:08:31;;;;;;;6.78;3.25;;;20.20;99.90;;;19.06;80.71;101632.53;5002115;28;20045;-73
2021/06/24 08:10:57;;;;;;;6.68;2.60;;;20.30;99.90;;;19.04;77.61;101633.59;4990944;28;20029;-73
2021/06/24 08:13:25;;;;;;;6.75;2.60;;;20.30;99.90;;;19.21;77.56;101630.66;5000174;28;20034;-73
2021/06/24 08:15:53;;;;;;;4.45;2.65;;;20.30;99.90;;;19.06;77.72;101632.53;4981983;28;20022;-73
2021/06/24 08:18:19;;;;;;;4.35;2.80;;;20.40;99.90;;;19.25;76.95;101631.28;4998861;28;20453;-73
2021/06/24 08:20:47;;;;;;;5.63;2.95;;;20.40;99.90;;;19.31;77.46;101628.22;4971567;28;20048;-73
2021/06/24 08:23:13;;;;;;;4.35;2.60;;;20.60;99.90;;;19.48;76.51;101624.34;5000358;28;20025;-73
2021/06/24 08:25:39;;;;;;;3.95;2.50;;;20.60;99.90;;;19.47;74.33;101625.31;4990415;28;20034;-73
2021/06/24 08:28:08;;;;;;;3.75;2.58;;;20.70;99.90;;;19.50;75.77;101621.56;5000971;28;20098;-73
2021/06/24 08:30:37;;;;;;;5.47;2.83;;;20.50;99.90;;;19.22;75.14;101620.81;4996672;28;20116;-73
2021/06/24 08:33:04;;;;;;;5.03;3.05;;;;;;;19.15;75.35;101630.22;4999734;28;20029;-73
2021/06/24 08:35:30;;;;;;;6.40;3.05;;;20.40;99.90;;;19.21;73.23;101627.13;5002821;28;20037;-73
2021/06/24 08:37:56;;;;;;;5.20;2.97;;;20.40;99.90;;;18.95;76.83;101632.41;5009734;28;20049;-73
2021/06/24 08:40:23;;;;;;;4.90;3.25;;;20.30;99.90;;;19.29;75.54;101630.13;5001339;28;20040;-73
2021/06/24 08:42:49;;;;;;;6.13;3.13;;;20.30;99.90;;;18.99;74.96;101631.25;5004623;28;20437;-73
2021/06/24 08:45:16;;;;;;;7.60;3.20;;;20.60;99.90;;;19.55;74.50;101617.63;5001801;28;20367;-73
2021/06/24 08:47:47;;;;;;;4.43;2.88;;;20.80;99.90;;;19.75;71.95;101624.25;5006987;28;20065;-72
2021/06/24 08:50:14;;;;;;;6.38;3.25;;;20.80;99.90;;;19.64;73.31;101616.13;5001827;28;20109;-72
2021/06/24 08:52:45;;;;;;;4.95;3.00;;;20.70;99.90;;;19.50;73.38;101625.09;5015707;28;20041;-72
2021/06/24 08:55:12;;;;;;;5.97;3.30;;;20.70;99.90;;;19.53;72.12;101622.22;4973276;28;20035;-73
2021/06/24 08:57:38;;;;;;;8.23;3.08;;;21.00;99.90;;;19.88;73.83;101611.72;4990078;28;20026;-73
2021/06/24 09:00:09;;;;;;;5.88;3.10;;;21.10;99.90;;;19.78;72.07;101616.00;4973365;28;20302;-73
2021/06/24 09:02:48;;;;;;;5.18;2.58;;;21.40;99.90;;;20.03;67.12;101615.09;4939811;28;20037;-72
2021/06/24 09:05:15;;;;;;;5.57;2.83;;;21.40;99.90;;;19.76;68.78;101617.97;4943912;28;20057;-72
2021/06/24 09:08:04;;;;;;;4.10;2.38;;;21.30;99.90;;;19.54;70.04;101620.41;4941477;28;20050;-72
2021/06/24 09:11:10;;;;;;;4.35;2.47;;;21.10;99.90;;;19.92;70.47;101620.38;4938979;28;20044;-72
2021/06/24 09:13:40;;;;;;;8.02;2.90;;;21.40;99.90;;;20.39;70.97;101615.19;4956257;28;20091;-73
2021/06/24 09:16:36;;;;;;;7.85;3.30;;;21.80;99.90;;;20.62;68.39;101624.22;4962066;28;20227;-73
2021/06/24 09:19:24;;;;;;;6.40;3.22;;;21.60;99.90;;;20.63;67.57;101626.78;4947132;28;20053;-73
2021/06/24 09:22:11;;;;;;;4.72;3.13;;;21.80;99.90;;;20.10;69.83;101626.19;4967111;28;20117;-73
2021/06/24 09:24:47;;;;;;;7.90;3.15;;;21.40;99.90;;;20.12;69.54;101626.94;4995037;28;20112;-73
2021/06/24 09:27:21;;;;;;;4.83;3.00;;;21.40;99.90;;;20.27;67.06;101625.81;4968014;28;20034;-73
2021/06/24 09:30:18;;;;;;;5.30;2.85;;;21.50;99.90;;;19.51;70.75;101625.97;4975085;28;20030;-72
2021/06/24 09:32:47;;;;;;;5.40;2.90;;;21.10;99.90;;;19.85;73.56;101627.97;4953584;28;20043;-73
2021/06/24 09:35:25;;;;;;;4.28;3.05;;;21.20;99.90;;;19.76;72.41;101630.44;4965946;28;20035;-72
2021/06/24 09:38:16;;;;;;;7.82;3.38;;;21.00;99.90;;;18.99;71.73;101635.75;4949106;28;20037;-72
2021/06/24 09:41:16;;;;;;;4.25;2.60;;;20.70;99.90;;;19.55;69.80;101628.31;4981508;28;20065;-73
2021/06/24 09:43:45;;;;;;;5.57;2.45;;;20.80;99.90;;;19.54;71.54;101623.91;4963375;28;20029;-73
2021/06/24 09:46:24;;;;;;;5.85;3.03;;;20.80;99.90;;;19.56;73.02;101630.00;4980947;28;20028;-72
2021/06/24 09:49:00;;;;;;;4.43;2.70;;;20.80;99.90;;;19.35;73.33;101627.03;4959184;28;20107;-72
2021/06/24 09:52:01;;;;;;;9.13;3.20;;;20.70;99.90;;;19.54;72.74;101625.75;4963201;28;20031;-72
2021/06/24 09:54:50;;;;;;;6.80;2.78;;;20.80;99.90;;;19.65;72.31;101629.38;4962023;28;20466;-72
2021/06/24 09:57:29;;;;;;;4.90;2.78;;;20.90;99.90;;;19.70;72.19;101621.06;4964956;28;20044;-72
2021/06/24 10:00:27;;;;;;;5.32;2.95;;;21.00;99.90;;;19.83;70.80;101621.03;4980714;28;20045;-71
2021/06/24 10:03:20;;;;;;;6.57;3.00;;;21.10;99.90;;;19.58;71.65;101616.56;4937844;28;20038;-72
2021/06/24 10:05:48;;;;;;;6.30;3.15;;;21.00;99.90;;;19.81;71.50;101614.97;4961762;28;20022;-72
2021/06/24 10:08:18;;;;;;;8.20;3.40;;;21.00;99.90;;;19.68;72.94;101612.28;4958605;28;21245;-72
2021/06/24 10:10:47;;;;;;;6.78;3.60;;;20.90;99.90;;;19.69;72.47;101624.66;5011484;28;20030;-72